sensor_id;sensor_type;location;lat;lon;timestamp;P1;durP1;ratioP1;P2;durP2;ratioP2
45887;SDS011;31595;51.418;7.572;2023-03-13T00:00:49;11.75;;;3.38;;
45887;SDS011;31595;51.418;7.572;2023-03-13T00:03:18;15.10;;;3.53;;
45887;SDS011;31595;51.418;7.572;2023-03-13T00:05:46;11.98;;;3.20;;
45887;SDS011;31595;51.418;7.572;2023-03-13T00:08:14;13.15;;;4.25;;
45887;SDS011;31595;51.418;7.572;2023-03-13T00:10:41;15.70;;;3.65;;
45887;SDS011;31595;51.418;7.572;2023-03-13T00:13:08;12.38;;;3.10;;
45887;SDS011;31595;51.418;7.572;2023-03-13T00:15:36;9.20;;;3.00;;
45887;SDS011;31595;51.418;7.572;2023-03-13T00:18:06;14.15;;;3.45;;
45887;SDS011;31595;51.418;7.572;2023-03-13T00:20:33;13.02;;;3.30;;
45887;SDS011;31595;51.418;7.572;2023-03-13T00:23:02;12.73;;;3.33;;
45887;SDS011;31595;51.418;7.572;2023-03-13T00:25:29;12.07;;;3.60;;
45887;SDS011;31595;51.418;7.572;2023-03-13T00:27:56;12.75;;;3.22;;
45887;SDS011;31595;51.418;7.572;2023-03-13T00:30:23;11.93;;;3.88;;
45887;SDS011;31595;51.418;7.572;2023-03-13T00:32:51;14.82;;;4.10;;
45887;SDS011;31595;51.418;7.572;2023-03-13T00:35:18;10.00;;;3.15;;
45887;SDS011;31595;51.418;7.572;2023-03-13T00:37:45;11.68;;;3.33;;
45887;SDS011;31595;51.418;7.572;2023-03-13T00:40:14;14.68;;;4.15;;
45887;SDS011;31595;51.418;7.572;2023-03-13T00:42:41;13.00;;;3.60;;
45887;SDS011;31595;51.418;7.572;2023-03-13T00:45:09;12.85;;;3.53;;
45887;SDS011;31595;51.418;7.572;2023-03-13T00:47:36;12.02;;;3.28;;
45887;SDS011;31595;51.418;7.572;2023-03-13T00:50:04;9.73;;;3.38;;
45887;SDS011;31595;51.418;7.572;2023-03-13T00:52:32;14.32;;;3.47;;
45887;SDS011;31595;51.418;7.572;2023-03-13T00:54:59;10.90;;;3.40;;
45887;SDS011;31595;51.418;7.572;2023-03-13T00:57:27;12.40;;;3.42;;
45887;SDS011;31595;51.418;7.572;2023-03-13T00:59:55;13.82;;;3.53;;
45887;SDS011;31595;51.418;7.572;2023-03-13T01:02:22;13.55;;;3.65;;
45887;SDS011;31595;51.418;7.572;2023-03-13T01:04:49;14.38;;;3.80;;
45887;SDS011;31595;51.418;7.572;2023-03-13T01:07:18;12.50;;;3.03;;
45887;SDS011;31595;51.418;7.572;2023-03-13T01:09:45;15.35;;;3.83;;
45887;SDS011;31595;51.418;7.572;2023-03-13T01:12:13;9.98;;;3.28;;
45887;SDS011;31595;51.418;7.572;2023-03-13T01:14:41;13.90;;;3.33;;
45887;SDS011;31595;51.418;7.572;2023-03-13T01:17:08;13.32;;;3.63;;
45887;SDS011;31595;51.418;7.572;2023-03-13T01:19:36;13.15;;;3.90;;
45887;SDS011;31595;51.418;7.572;2023-03-13T01:22:03;13.38;;;3.45;;
45887;SDS011;31595;51.418;7.572;2023-03-13T01:24:39;11.35;;;3.60;;
45887;SDS011;31595;51.418;7.572;2023-03-13T01:27:06;12.15;;;3.50;;
45887;SDS011;31595;51.418;7.572;2023-03-13T01:29:33;15.10;;;3.60;;
45887;SDS011;31595;51.418;7.572;2023-03-13T01:32:02;12.48;;;2.90;;
45887;SDS011;31595;51.418;7.572;2023-03-13T01:34:29;15.15;;;3.33;;
45887;SDS011;31595;51.418;7.572;2023-03-13T01:36:57;11.40;;;3.45;;
45887;SDS011;31595;51.418;7.572;2023-03-13T01:39:24;14.32;;;3.67;;
45887;SDS011;31595;51.418;7.572;2023-03-13T01:41:51;12.00;;;3.17;;
45887;SDS011;31595;51.418;7.572;2023-03-13T01:44:20;12.55;;;3.70;;
45887;SDS011;31595;51.418;7.572;2023-03-13T01:46:48;14.63;;;3.58;;
45887;SDS011;31595;51.418;7.572;2023-03-13T01:49:18;11.45;;;3.65;;
45887;SDS011;31595;51.418;7.572;2023-03-13T01:51:49;11.50;;;3.25;;
45887;SDS011;31595;51.418;7.572;2023-03-13T01:54:21;13.70;;;3.17;;
45887;SDS011;31595;51.418;7.572;2023-03-13T01:56:52;9.80;;;3.13;;
45887;SDS011;31595;51.418;7.572;2023-03-13T01:59:24;14.65;;;3.85;;
45887;SDS011;31595;51.418;7.572;2023-03-13T02:04:24;12.98;;;3.53;;
45887;SDS011;31595;51.418;7.572;2023-03-13T02:06:53;12.40;;;3.50;;
45887;SDS011;31595;51.418;7.572;2023-03-13T02:09:28;15.20;;;3.90;;
45887;SDS011;31595;51.418;7.572;2023-03-13T02:11:58;12.73;;;3.22;;
45887;SDS011;31595;51.418;7.572;2023-03-13T02:14:29;12.05;;;3.78;;
45887;SDS011;31595;51.418;7.572;2023-03-13T02:17:01;9.98;;;3.45;;
45887;SDS011;31595;51.418;7.572;2023-03-13T02:19:32;12.93;;;3.80;;
45887;SDS011;31595;51.418;7.572;2023-03-13T02:22:07;9.65;;;2.88;;
45887;SDS011;31595;51.418;7.572;2023-03-13T02:24:43;11.23;;;3.22;;
45887;SDS011;31595;51.418;7.572;2023-03-13T02:27:16;12.35;;;3.63;;
45887;SDS011;31595;51.418;7.572;2023-03-13T02:29:44;13.75;;;3.88;;
45887;SDS011;31595;51.418;7.572;2023-03-13T02:32:11;11.77;;;3.13;;
45887;SDS011;31595;51.418;7.572;2023-03-13T02:34:39;11.70;;;3.30;;
45887;SDS011;31595;51.418;7.572;2023-03-13T02:37:09;12.30;;;3.72;;
45887;SDS011;31595;51.418;7.572;2023-03-13T02:39:40;14.27;;;3.33;;
45887;SDS011;31595;51.418;7.572;2023-03-13T02:42:10;10.25;;;2.95;;
45887;SDS011;31595;51.418;7.572;2023-03-13T02:47:11;10.88;;;3.15;;
45887;SDS011;31595;51.418;7.572;2023-03-13T02:49:38;10.77;;;4.10;;
45887;SDS011;31595;51.418;7.572;2023-03-13T02:52:09;13.50;;;3.63;;
45887;SDS011;31595;51.418;7.572;2023-03-13T02:54:43;9.40;;;2.90;;
45887;SDS011;31595;51.418;7.572;2023-03-13T02:57:13;9.57;;;3.35;;
45887;SDS011;31595;51.418;7.572;2023-03-13T02:59:41;8.43;;;3.42;;
45887;SDS011;31595;51.418;7.572;2023-03-13T03:02:08;9.05;;;2.85;;
45887;SDS011;31595;51.418;7.572;2023-03-13T03:04:36;8.60;;;2.70;;
45887;SDS011;31595;51.418;7.572;2023-03-13T03:07:03;11.50;;;3.22;;
45887;SDS011;31595;51.418;7.572;2023-03-13T03:09:30;9.05;;;2.65;;
45887;SDS011;31595;51.418;7.572;2023-03-13T03:11:58;8.35;;;2.75;;
45887;SDS011;31595;51.418;7.572;2023-03-13T03:14:28;6.85;;;2.25;;
45887;SDS011;31595;51.418;7.572;2023-03-13T03:16:57;8.90;;;3.10;;
45887;SDS011;31595;51.418;7.572;2023-03-13T03:19:24;7.00;;;2.50;;
45887;SDS011;31595;51.418;7.572;2023-03-13T03:21:51;7.30;;;2.50;;
45887;SDS011;31595;51.418;7.572;2023-03-13T03:24:19;8.35;;;2.53;;
45887;SDS011;31595;51.418;7.572;2023-03-13T03:26:46;6.28;;;2.40;;
45887;SDS011;31595;51.418;7.572;2023-03-13T03:29:14;9.30;;;2.80;;
45887;SDS011;31595;51.418;7.572;2023-03-13T03:31:41;10.48;;;2.95;;
45887;SDS011;31595;51.418;7.572;2023-03-13T03:34:13;7.57;;;2.47;;
45887;SDS011;31595;51.418;7.572;2023-03-13T03:36:40;5.20;;;1.98;;
45887;SDS011;31595;51.418;7.572;2023-03-13T03:39:08;7.93;;;2.42;;
45887;SDS011;31595;51.418;7.572;2023-03-13T03:41:41;9.63;;;2.42;;
45887;SDS011;31595;51.418;7.572;2023-03-13T03:44:08;7.95;;;2.22;;
45887;SDS011;31595;51.418;7.572;2023-03-13T03:46:35;13.02;;;3.00;;
45887;SDS011;31595;51.418;7.572;2023-03-13T03:49:02;8.23;;;2.58;;
45887;SDS011;31595;51.418;7.572;2023-03-13T03:51:31;6.65;;;2.70;;
45887;SDS011;31595;51.418;7.572;2023-03-13T03:53:58;7.03;;;2.60;;
45887;SDS011;31595;51.418;7.572;2023-03-13T03:56:25;5.60;;;2.22;;
45887;SDS011;31595;51.418;7.572;2023-03-13T03:58:53;8.20;;;2.60;;
45887;SDS011;31595;51.418;7.572;2023-03-13T04:01:20;9.23;;;3.00;;
45887;SDS011;31595;51.418;7.572;2023-03-13T04:03:47;6.57;;;2.15;;
45887;SDS011;31595;51.418;7.572;2023-03-13T04:06:14;4.57;;;1.90;;
45887;SDS011;31595;51.418;7.572;2023-03-13T04:08:53;5.75;;;2.30;;
45887;SDS011;31595;51.418;7.572;2023-03-13T04:11:21;5.18;;;2.15;;
45887;SDS011;31595;51.418;7.572;2023-03-13T04:13:48;3.25;;;1.92;;
45887;SDS011;31595;51.418;7.572;2023-03-13T04:16:16;5.38;;;1.80;;
45887;SDS011;31595;51.418;7.572;2023-03-13T04:18:43;6.18;;;2.13;;
45887;SDS011;31595;51.418;7.572;2023-03-13T04:21:10;4.53;;;1.58;;
45887;SDS011;31595;51.418;7.572;2023-03-13T04:23:38;5.68;;;1.63;;
45887;SDS011;31595;51.418;7.572;2023-03-13T04:26:06;3.05;;;1.50;;
45887;SDS011;31595;51.418;7.572;2023-03-13T04:28:34;6.22;;;1.77;;
45887;SDS011;31595;51.418;7.572;2023-03-13T04:31:04;4.05;;;1.58;;
45887;SDS011;31595;51.418;7.572;2023-03-13T04:33:31;4.57;;;1.60;;
45887;SDS011;31595;51.418;7.572;2023-03-13T04:35:58;3.33;;;1.73;;
45887;SDS011;31595;51.418;7.572;2023-03-13T04:38:26;5.10;;;2.17;;
45887;SDS011;31595;51.418;7.572;2023-03-13T04:40:53;4.10;;;1.80;;
45887;SDS011;31595;51.418;7.572;2023-03-13T04:43:24;3.88;;;1.60;;
45887;SDS011;31595;51.418;7.572;2023-03-13T04:45:51;5.32;;;1.80;;
45887;SDS011;31595;51.418;7.572;2023-03-13T04:48:20;3.88;;;1.40;;
45887;SDS011;31595;51.418;7.572;2023-03-13T04:50:47;4.10;;;1.63;;
45887;SDS011;31595;51.418;7.572;2023-03-13T04:53:17;3.17;;;1.55;;
45887;SDS011;31595;51.418;7.572;2023-03-13T04:55:45;8.15;;;2.08;;
45887;SDS011;31595;51.418;7.572;2023-03-13T04:58:14;5.78;;;2.00;;
45887;SDS011;31595;51.418;7.572;2023-03-13T05:00:44;11.02;;;2.33;;
45887;SDS011;31595;51.418;7.572;2023-03-13T05:03:12;6.82;;;1.98;;
45887;SDS011;31595;51.418;7.572;2023-03-13T05:05:39;4.45;;;2.38;;
45887;SDS011;31595;51.418;7.572;2023-03-13T05:08:06;5.78;;;2.63;;
45887;SDS011;31595;51.418;7.572;2023-03-13T05:10:35;9.85;;;2.88;;
45887;SDS011;31595;51.418;7.572;2023-03-13T05:13:02;5.28;;;1.98;;
45887;SDS011;31595;51.418;7.572;2023-03-13T05:15:29;5.80;;;2.30;;
45887;SDS011;31595;51.418;7.572;2023-03-13T05:17:58;4.35;;;2.72;;
45887;SDS011;31595;51.418;7.572;2023-03-13T05:20:25;5.38;;;2.17;;
45887;SDS011;31595;51.418;7.572;2023-03-13T05:22:52;4.03;;;2.28;;
45887;SDS011;31595;51.418;7.572;2023-03-13T05:25:20;3.65;;;2.53;;
45887;SDS011;31595;51.418;7.572;2023-03-13T05:27:47;4.15;;;2.00;;
45887;SDS011;31595;51.418;7.572;2023-03-13T05:30:14;3.30;;;2.00;;
45887;SDS011;31595;51.418;7.572;2023-03-13T05:32:42;3.95;;;2.50;;
45887;SDS011;31595;51.418;7.572;2023-03-13T05:35:10;3.72;;;2.10;;
45887;SDS011;31595;51.418;7.572;2023-03-13T05:37:38;2.30;;;1.70;;
45887;SDS011;31595;51.418;7.572;2023-03-13T05:40:06;5.28;;;2.28;;
45887;SDS011;31595;51.418;7.572;2023-03-13T05:42:34;2.58;;;1.80;;
45887;SDS011;31595;51.418;7.572;2023-03-13T05:45:01;2.90;;;1.70;;
45887;SDS011;31595;51.418;7.572;2023-03-13T05:47:28;5.00;;;2.22;;
45887;SDS011;31595;51.418;7.572;2023-03-13T05:49:58;4.57;;;2.00;;
45887;SDS011;31595;51.418;7.572;2023-03-13T05:52:27;3.65;;;1.65;;
45887;SDS011;31595;51.418;7.572;2023-03-13T05:54:54;2.70;;;1.80;;
45887;SDS011;31595;51.418;7.572;2023-03-13T05:57:21;5.47;;;1.95;;
45887;SDS011;31595;51.418;7.572;2023-03-13T05:59:49;3.80;;;2.28;;
45887;SDS011;31595;51.418;7.572;2023-03-13T06:02:16;2.80;;;1.90;;
45887;SDS011;31595;51.418;7.572;2023-03-13T06:04:45;3.65;;;2.03;;
45887;SDS011;31595;51.418;7.572;2023-03-13T06:07:12;2.63;;;1.67;;
45887;SDS011;31595;51.418;7.572;2023-03-13T06:09:41;3.30;;;1.80;;
45887;SDS011;31595;51.418;7.572;2023-03-13T06:12:08;3.13;;;1.70;;
45887;SDS011;31595;51.418;7.572;2023-03-13T06:14:37;3.03;;;1.70;;
45887;SDS011;31595;51.418;7.572;2023-03-13T06:17:04;2.13;;;1.67;;
45887;SDS011;31595;51.418;7.572;2023-03-13T06:19:31;2.50;;;1.60;;
45887;SDS011;31595;51.418;7.572;2023-03-13T06:21:59;1.98;;;1.50;;
45887;SDS011;31595;51.418;7.572;2023-03-13T06:24:26;2.50;;;1.50;;
45887;SDS011;31595;51.418;7.572;2023-03-13T06:26:55;2.67;;;1.50;;
45887;SDS011;31595;51.418;7.572;2023-03-13T06:29:22;2.85;;;1.50;;
45887;SDS011;31595;51.418;7.572;2023-03-13T06:31:49;3.47;;;1.80;;
45887;SDS011;31595;51.418;7.572;2023-03-13T06:34:17;3.25;;;1.83;;
45887;SDS011;31595;51.418;7.572;2023-03-13T06:36:44;2.60;;;1.40;;
45887;SDS011;31595;51.418;7.572;2023-03-13T06:39:11;3.10;;;1.60;;
45887;SDS011;31595;51.418;7.572;2023-03-13T06:41:39;2.55;;;1.40;;
45887;SDS011;31595;51.418;7.572;2023-03-13T06:44:07;2.25;;;1.30;;
45887;SDS011;31595;51.418;7.572;2023-03-13T06:46:34;2.25;;;1.20;;
45887;SDS011;31595;51.418;7.572;2023-03-13T06:49:02;1.80;;;1.10;;
45887;SDS011;31595;51.418;7.572;2023-03-13T06:51:30;3.10;;;1.25;;
45887;SDS011;31595;51.418;7.572;2023-03-13T06:53:58;2.75;;;1.23;;
45887;SDS011;31595;51.418;7.572;2023-03-13T06:56:27;1.88;;;1.00;;
45887;SDS011;31595;51.418;7.572;2023-03-13T06:58:54;2.13;;;1.17;;
45887;SDS011;31595;51.418;7.572;2023-03-13T07:01:22;2.50;;;1.25;;
45887;SDS011;31595;51.418;7.572;2023-03-13T07:03:50;3.30;;;1.38;;
45887;SDS011;31595;51.418;7.572;2023-03-13T07:06:17;2.22;;;1.30;;
45887;SDS011;31595;51.418;7.572;2023-03-13T07:08:44;3.35;;;1.42;;
45887;SDS011;31595;51.418;7.572;2023-03-13T07:11:12;1.95;;;1.42;;
45887;SDS011;31595;51.418;7.572;2023-03-13T07:13:40;2.90;;;1.23;;
45887;SDS011;31595;51.418;7.572;2023-03-13T07:16:08;3.50;;;1.50;;
45887;SDS011;31595;51.418;7.572;2023-03-13T07:18:39;2.75;;;1.30;;
45887;SDS011;31595;51.418;7.572;2023-03-13T07:21:09;2.22;;;1.05;;
45887;SDS011;31595;51.418;7.572;2023-03-13T07:23:36;2.83;;;1.30;;
45887;SDS011;31595;51.418;7.572;2023-03-13T07:26:04;1.80;;;1.23;;
45887;SDS011;31595;51.418;7.572;2023-03-13T07:28:37;2.25;;;1.30;;
45887;SDS011;31595;51.418;7.572;2023-03-13T07:31:04;2.60;;;1.30;;
45887;SDS011;31595;51.418;7.572;2023-03-13T07:33:33;2.63;;;1.30;;
45887;SDS011;31595;51.418;7.572;2023-03-13T07:36:02;2.63;;;1.40;;
45887;SDS011;31595;51.418;7.572;2023-03-13T07:38:30;2.33;;;1.60;;
45887;SDS011;31595;51.418;7.572;2023-03-13T07:40:57;3.38;;;1.73;;
45887;SDS011;31595;51.418;7.572;2023-03-13T07:43:25;2.58;;;1.63;;
45887;SDS011;31595;51.418;7.572;2023-03-13T07:45:54;3.35;;;1.60;;
45887;SDS011;31595;51.418;7.572;2023-03-13T07:48:23;3.03;;;1.50;;
45887;SDS011;31595;51.418;7.572;2023-03-13T07:50:54;4.10;;;1.58;;
45887;SDS011;31595;51.418;7.572;2023-03-13T07:53:22;2.65;;;1.67;;
45887;SDS011;31595;51.418;7.572;2023-03-13T07:55:50;2.88;;;1.55;;
45887;SDS011;31595;51.418;7.572;2023-03-13T07:58:22;4.90;;;1.88;;
45887;SDS011;31595;51.418;7.572;2023-03-13T08:00:50;3.65;;;1.90;;
45887;SDS011;31595;51.418;7.572;2023-03-13T08:03:18;2.67;;;1.88;;
45887;SDS011;31595;51.418;7.572;2023-03-13T08:05:46;2.75;;;1.90;;
45887;SDS011;31595;51.418;7.572;2023-03-13T08:08:13;2.47;;;1.65;;
45887;SDS011;31595;51.418;7.572;2023-03-13T08:10:41;3.90;;;1.88;;
45887;SDS011;31595;51.418;7.572;2023-03-13T08:13:09;2.50;;;1.67;;
45887;SDS011;31595;51.418;7.572;2023-03-13T08:15:36;3.40;;;1.75;;
45887;SDS011;31595;51.418;7.572;2023-03-13T08:18:04;2.55;;;1.60;;
45887;SDS011;31595;51.418;7.572;2023-03-13T08:20:31;2.72;;;1.60;;
45887;SDS011;31595;51.418;7.572;2023-03-13T08:22:58;2.75;;;1.60;;
45887;SDS011;31595;51.418;7.572;2023-03-13T08:25:25;5.28;;;1.75;;
45887;SDS011;31595;51.418;7.572;2023-03-13T08:27:54;3.08;;;1.88;;
45887;SDS011;31595;51.418;7.572;2023-03-13T08:30:21;4.13;;;1.93;;
45887;SDS011;31595;51.418;7.572;2023-03-13T08:32:49;7.60;;;2.08;;
45887;SDS011;31595;51.418;7.572;2023-03-13T08:35:16;4.28;;;1.90;;
45887;SDS011;31595;51.418;7.572;2023-03-13T08:37:43;3.72;;;1.80;;
45887;SDS011;31595;51.418;7.572;2023-03-13T08:40:11;3.13;;;1.60;;
45887;SDS011;31595;51.418;7.572;2023-03-13T08:42:38;7.20;;;1.65;;
45887;SDS011;31595;51.418;7.572;2023-03-13T08:45:07;4.50;;;1.80;;
45887;SDS011;31595;51.418;7.572;2023-03-13T08:47:35;5.18;;;1.80;;
45887;SDS011;31595;51.418;7.572;2023-03-13T08:50:02;4.15;;;1.88;;
45887;SDS011;31595;51.418;7.572;2023-03-13T08:52:30;3.35;;;1.65;;
45887;SDS011;31595;51.418;7.572;2023-03-13T08:54:57;4.15;;;1.83;;
45887;SDS011;31595;51.418;7.572;2023-03-13T08:57:24;5.85;;;2.00;;
45887;SDS011;31595;51.418;7.572;2023-03-13T08:59:52;5.38;;;2.05;;
45887;SDS011;31595;51.418;7.572;2023-03-13T09:02:20;5.97;;;2.22;;
45887;SDS011;31595;51.418;7.572;2023-03-13T09:04:47;4.20;;;1.92;;
45887;SDS011;31595;51.418;7.572;2023-03-13T09:07:15;5.07;;;2.38;;
45887;SDS011;31595;51.418;7.572;2023-03-13T09:09:42;3.33;;;1.80;;
45887;SDS011;31595;51.418;7.572;2023-03-13T09:12:10;4.78;;;1.95;;
45887;SDS011;31595;51.418;7.572;2023-03-13T09:14:37;3.38;;;2.13;;
45887;SDS011;31595;51.418;7.572;2023-03-13T09:17:04;5.20;;;2.55;;
45887;SDS011;31595;51.418;7.572;2023-03-13T09:19:33;6.07;;;2.97;;
45887;SDS011;31595;51.418;7.572;2023-03-13T09:22:00;5.57;;;2.60;;
45887;SDS011;31595;51.418;7.572;2023-03-13T09:24:27;6.15;;;2.40;;
45887;SDS011;31595;51.418;7.572;2023-03-13T09:26:54;4.45;;;2.53;;
45887;SDS011;31595;51.418;7.572;2023-03-13T09:29:22;4.53;;;2.10;;
45887;SDS011;31595;51.418;7.572;2023-03-13T09:31:49;6.90;;;2.50;;
45887;SDS011;31595;51.418;7.572;2023-03-13T09:34:16;4.38;;;2.47;;
45887;SDS011;31595;51.418;7.572;2023-03-13T09:36:45;5.28;;;2.45;;
45887;SDS011;31595;51.418;7.572;2023-03-13T09:39:12;6.72;;;2.47;;
45887;SDS011;31595;51.418;7.572;2023-03-13T09:41:42;4.38;;;2.42;;
45887;SDS011;31595;51.418;7.572;2023-03-13T09:44:16;4.10;;;2.10;;
45887;SDS011;31595;51.418;7.572;2023-03-13T09:46:51;5.05;;;2.50;;
45887;SDS011;31595;51.418;7.572;2023-03-13T09:49:30;5.97;;;2.88;;
45887;SDS011;31595;51.418;7.572;2023-03-13T09:52:12;4.70;;;2.60;;
45887;SDS011;31595;51.418;7.572;2023-03-13T09:54:44;4.22;;;2.40;;
45887;SDS011;31595;51.418;7.572;2023-03-13T09:57:17;3.67;;;2.15;;
45887;SDS011;31595;51.418;7.572;2023-03-13T09:59:51;4.22;;;2.70;;
45887;SDS011;31595;51.418;7.572;2023-03-13T10:02:27;5.68;;;2.58;;
45887;SDS011;31595;51.418;7.572;2023-03-13T10:04:59;5.57;;;2.60;;
45887;SDS011;31595;51.418;7.572;2023-03-13T10:07:32;3.35;;;2.33;;
45887;SDS011;31595;51.418;7.572;2023-03-13T10:10:00;4.37;;;2.27;;
45887;SDS011;31595;51.418;7.572;2023-03-13T10:12:28;3.42;;;1.70;;
45887;SDS011;31595;51.418;7.572;2023-03-13T10:15:06;3.28;;;1.90;;
45887;SDS011;31595;51.418;7.572;2023-03-13T10:17:46;4.18;;;1.70;;
45887;SDS011;31595;51.418;7.572;2023-03-13T10:20:16;4.55;;;1.95;;
45887;SDS011;31595;51.418;7.572;2023-03-13T10:22:51;3.17;;;1.80;;
45887;SDS011;31595;51.418;7.572;2023-03-13T10:25:26;3.17;;;1.70;;
45887;SDS011;31595;51.418;7.572;2023-03-13T10:27:57;3.58;;;1.58;;
45887;SDS011;31595;51.418;7.572;2023-03-13T10:30:27;5.50;;;1.60;;
45887;SDS011;31595;51.418;7.572;2023-03-13T10:32:59;1.95;;;1.38;;
45887;SDS011;31595;51.418;7.572;2023-03-13T10:35:43;5.00;;;1.40;;
45887;SDS011;31595;51.418;7.572;2023-03-13T10:38:12;6.03;;;1.55;;
45887;SDS011;31595;51.418;7.572;2023-03-13T10:40:40;2.30;;;1.42;;
45887;SDS011;31595;51.418;7.572;2023-03-13T10:43:12;2.55;;;1.15;;
45887;SDS011;31595;51.418;7.572;2023-03-13T10:45:42;3.30;;;1.70;;
45887;SDS011;31595;51.418;7.572;2023-03-13T10:48:10;2.22;;;1.50;;
45887;SDS011;31595;51.418;7.572;2023-03-13T10:50:41;2.10;;;1.00;;
45887;SDS011;31595;51.418;7.572;2023-03-13T10:53:22;2.58;;;1.00;;
45887;SDS011;31595;51.418;7.572;2023-03-13T10:55:51;2.05;;;1.23;;
45887;SDS011;31595;51.418;7.572;2023-03-13T10:58:22;5.25;;;1.33;;
45887;SDS011;31595;51.418;7.572;2023-03-13T11:01:07;1.67;;;1.02;;
45887;SDS011;31595;51.418;7.572;2023-03-13T11:03:41;3.80;;;1.38;;
45887;SDS011;31595;51.418;7.572;2023-03-13T11:06:22;3.60;;;1.20;;
45887;SDS011;31595;51.418;7.572;2023-03-13T11:08:59;2.08;;;0.90;;
45887;SDS011;31595;51.418;7.572;2023-03-13T11:11:30;2.88;;;1.10;;
45887;SDS011;31595;51.418;7.572;2023-03-13T11:14:11;3.22;;;1.25;;
45887;SDS011;31595;51.418;7.572;2023-03-13T11:16:43;1.80;;;1.00;;
45887;SDS011;31595;51.418;7.572;2023-03-13T11:19:20;3.13;;;1.10;;
45887;SDS011;31595;51.418;7.572;2023-03-13T11:22:06;2.35;;;1.10;;
45887;SDS011;31595;51.418;7.572;2023-03-13T11:24:45;1.80;;;1.00;;
45887;SDS011;31595;51.418;7.572;2023-03-13T11:27:20;2.22;;;1.00;;
45887;SDS011;31595;51.418;7.572;2023-03-13T11:29:57;2.58;;;1.15;;
45887;SDS011;31595;51.418;7.572;2023-03-13T11:35:06;1.90;;;1.15;;
45887;SDS011;31595;51.418;7.572;2023-03-13T11:37:45;2.65;;;0.90;;
45887;SDS011;31595;51.418;7.572;2023-03-13T11:40:16;1.73;;;0.82;;
45887;SDS011;31595;51.418;7.572;2023-03-13T11:42:54;1.58;;;1.05;;
45887;SDS011;31595;51.418;7.572;2023-03-13T11:51:33;3.08;;;1.00;;
45887;SDS011;31595;51.418;7.572;2023-03-13T11:54:21;1.80;;;0.77;;
45887;SDS011;31595;51.418;7.572;2023-03-13T11:57:04;2.10;;;0.90;;
45887;SDS011;31595;51.418;7.572;2023-03-13T11:59:38;2.17;;;1.05;;
45887;SDS011;31595;51.418;7.572;2023-03-13T12:02:14;3.33;;;1.20;;
45887;SDS011;31595;51.418;7.572;2023-03-13T12:04:49;3.65;;;1.30;;
45887;SDS011;31595;51.418;7.572;2023-03-13T12:07:22;3.45;;;1.00;;
45887;SDS011;31595;51.418;7.572;2023-03-13T12:09:54;2.58;;;1.10;;
45887;SDS011;31595;51.418;7.572;2023-03-13T12:12:28;2.60;;;1.20;;
45887;SDS011;31595;51.418;7.572;2023-03-13T12:15:05;1.73;;;0.90;;
45887;SDS011;31595;51.418;7.572;2023-03-13T12:17:45;3.22;;;1.10;;
45887;SDS011;31595;51.418;7.572;2023-03-13T12:20:18;3.10;;;1.15;;
45887;SDS011;31595;51.418;7.572;2023-03-13T12:22:51;2.05;;;1.00;;
45887;SDS011;31595;51.418;7.572;2023-03-13T12:25:25;3.28;;;0.90;;
45887;SDS011;31595;51.418;7.572;2023-03-13T12:27:57;1.60;;;1.10;;
45887;SDS011;31595;51.418;7.572;2023-03-13T12:30:32;2.95;;;1.40;;
45887;SDS011;31595;51.418;7.572;2023-03-13T12:33:05;1.60;;;1.00;;
45887;SDS011;31595;51.418;7.572;2023-03-13T12:35:44;1.70;;;0.85;;
45887;SDS011;31595;51.418;7.572;2023-03-13T12:38:16;1.35;;;0.90;;
45887;SDS011;31595;51.418;7.572;2023-03-13T12:40:49;3.67;;;1.33;;
45887;SDS011;31595;51.418;7.572;2023-03-13T12:43:25;1.42;;;0.65;;
45887;SDS011;31595;51.418;7.572;2023-03-13T12:46:04;2.95;;;1.17;;
45887;SDS011;31595;51.418;7.572;2023-03-13T12:48:49;3.50;;;1.10;;
45887;SDS011;31595;51.418;7.572;2023-03-13T12:51:33;3.75;;;0.90;;
45887;SDS011;31595;51.418;7.572;2023-03-13T12:54:20;2.47;;;1.23;;
45887;SDS011;31595;51.418;7.572;2023-03-13T12:57:14;3.78;;;1.00;;
45887;SDS011;31595;51.418;7.572;2023-03-13T13:00:02;2.00;;;1.00;;
45887;SDS011;31595;51.418;7.572;2023-03-13T13:02:39;4.35;;;0.90;;
45887;SDS011;31595;51.418;7.572;2023-03-13T13:05:15;1.98;;;0.90;;
45887;SDS011;31595;51.418;7.572;2023-03-13T13:07:51;1.70;;;0.70;;
45887;SDS011;31595;51.418;7.572;2023-03-13T13:10:20;1.50;;;0.75;;
45887;SDS011;31595;51.418;7.572;2023-03-13T13:15:59;2.67;;;0.60;;
45887;SDS011;31595;51.418;7.572;2023-03-13T13:18:30;1.63;;;0.70;;
45887;SDS011;31595;51.418;7.572;2023-03-13T13:21:18;1.98;;;0.80;;
45887;SDS011;31595;51.418;7.572;2023-03-13T13:23:48;1.95;;;0.70;;
45887;SDS011;31595;51.418;7.572;2023-03-13T13:32:30;1.70;;;0.77;;
45887;SDS011;31595;51.418;7.572;2023-03-13T13:35:25;1.52;;;0.60;;
45887;SDS011;31595;51.418;7.572;2023-03-13T13:41:02;5.07;;;1.10;;
45887;SDS011;31595;51.418;7.572;2023-03-13T13:43:32;1.25;;;0.63;;
45887;SDS011;31595;51.418;7.572;2023-03-13T13:46:01;6.13;;;1.05;;
45887;SDS011;31595;51.418;7.572;2023-03-13T13:48:35;2.95;;;0.80;;
45887;SDS011;31595;51.418;7.572;2023-03-13T13:53:59;2.42;;;0.80;;
45887;SDS011;31595;51.418;7.572;2023-03-13T13:56:28;3.60;;;0.93;;
45887;SDS011;31595;51.418;7.572;2023-03-13T13:59:20;1.58;;;0.73;;
45887;SDS011;31595;51.418;7.572;2023-03-13T14:04:45;4.40;;;0.80;;
45887;SDS011;31595;51.418;7.572;2023-03-13T14:07:17;4.10;;;0.77;;
45887;SDS011;31595;51.418;7.572;2023-03-13T14:09:53;4.03;;;0.95;;
45887;SDS011;31595;51.418;7.572;2023-03-13T14:12:27;10.50;;;1.15;;
45887;SDS011;31595;51.418;7.572;2023-03-13T14:15:10;3.10;;;1.00;;
45887;SDS011;31595;51.418;7.572;2023-03-13T14:17:40;3.70;;;1.02;;
45887;SDS011;31595;51.418;7.572;2023-03-13T14:20:27;3.83;;;0.80;;
45887;SDS011;31595;51.418;7.572;2023-03-13T14:22:57;6.25;;;1.10;;
45887;SDS011;31595;51.418;7.572;2023-03-13T14:25:26;4.10;;;1.02;;
45887;SDS011;31595;51.418;7.572;2023-03-13T14:27:54;6.35;;;1.10;;
45887;SDS011;31595;51.418;7.572;2023-03-13T14:30:22;2.85;;;0.80;;
45887;SDS011;31595;51.418;7.572;2023-03-13T14:32:50;4.18;;;1.10;;
45887;SDS011;31595;51.418;7.572;2023-03-13T14:35:19;4.10;;;1.08;;
45887;SDS011;31595;51.418;7.572;2023-03-13T14:37:50;5.95;;;1.10;;
45887;SDS011;31595;51.418;7.572;2023-03-13T14:40:20;5.72;;;1.00;;
45887;SDS011;31595;51.418;7.572;2023-03-13T14:42:51;4.78;;;1.20;;
45887;SDS011;31595;51.418;7.572;2023-03-13T14:45:22;2.45;;;1.00;;
45887;SDS011;31595;51.418;7.572;2023-03-13T14:47:53;4.82;;;0.90;;
45887;SDS011;31595;51.418;7.572;2023-03-13T14:50:21;3.53;;;0.98;;
45887;SDS011;31595;51.418;7.572;2023-03-13T14:52:53;4.60;;;0.98;;
45887;SDS011;31595;51.418;7.572;2023-03-13T14:55:29;5.70;;;1.00;;
45887;SDS011;31595;51.418;7.572;2023-03-13T15:00:51;2.83;;;0.80;;
45887;SDS011;31595;51.418;7.572;2023-03-13T15:03:23;4.03;;;1.02;;
45887;SDS011;31595;51.418;7.572;2023-03-13T15:06:06;3.85;;;1.30;;
45887;SDS011;31595;51.418;7.572;2023-03-13T15:08:43;4.97;;;0.98;;
45887;SDS011;31595;51.418;7.572;2023-03-13T15:11:24;4.25;;;0.90;;
45887;SDS011;31595;51.418;7.572;2023-03-13T15:13:54;3.63;;;0.90;;
45887;SDS011;31595;51.418;7.572;2023-03-13T15:16:22;2.55;;;0.93;;
45887;SDS011;31595;51.418;7.572;2023-03-13T15:18:50;2.63;;;0.80;;
45887;SDS011;31595;51.418;7.572;2023-03-13T15:21:25;14.20;;;1.63;;
45887;SDS011;31595;51.418;7.572;2023-03-13T15:23:57;5.40;;;1.70;;
45887;SDS011;31595;51.418;7.572;2023-03-13T15:26:26;3.25;;;1.70;;
45887;SDS011;31595;51.418;7.572;2023-03-13T15:28:54;3.80;;;1.75;;
45887;SDS011;31595;51.418;7.572;2023-03-13T15:31:22;3.38;;;1.75;;
45887;SDS011;31595;51.418;7.572;2023-03-13T15:33:53;3.10;;;1.92;;
45887;SDS011;31595;51.418;7.572;2023-03-13T15:36:23;3.15;;;2.10;;
45887;SDS011;31595;51.418;7.572;2023-03-13T15:38:51;2.92;;;1.67;;